createdAt,value
2023-03-17T00:00:21.172Z,100534.28
2023-03-17T00:01:23.995Z,100537.78
2023-03-17T00:02:26.749Z,100538.63
2023-03-17T00:03:30.967Z,100542.22
2023-03-17T00:04:53.547Z,100541.41
2023-03-17T00:06:18.723Z,100549.38
2023-03-17T00:07:41.269Z,100546.81
2023-03-17T00:09:03.907Z,100563.66
2023-03-17T00:10:27.578Z,100550.41
2023-03-17T00:11:50.184Z,100558.38
2023-03-17T00:13:14.375Z,100563.66
2023-03-17T00:14:36.104Z,100561.03
2023-03-17T00:16:02.409Z,100560.31
2023-03-17T00:17:24.976Z,100556.72
2023-03-17T00:18:48.328Z,100553.22
2023-03-17T00:20:15.817Z,100560.31
2023-03-17T00:21:38.789Z,100559.34
2023-03-17T00:23:04.208Z,100559.47
2023-03-17T00:24:27.306Z,100564.75
2023-03-17T00:25:53.402Z,100565.84
2023-03-17T00:27:15.243Z,100563.22
2023-03-17T00:28:39.389Z,100561.50
2023-03-17T00:30:01.004Z,100572.97
2023-03-17T00:31:27.591Z,100580.06
2023-03-17T00:32:52.832Z,100573.91
2023-03-17T00:34:18.284Z,100566.94
2023-03-17T00:35:41.690Z,100569.47
2023-03-17T00:37:04.596Z,100573.09
2023-03-17T00:38:26.180Z,100564.41
2023-03-17T00:39:49.288Z,100564.41
2023-03-17T00:41:11.172Z,100560.09
2023-03-17T00:42:34.302Z,100558.41
2023-03-17T00:43:59.127Z,100556.72
2023-03-17T00:45:27.291Z,100560.22
2023-03-17T00:46:49.099Z,100555.88
2023-03-17T00:48:15.759Z,100549.00
2023-03-17T00:49:38.564Z,100549.72
2023-03-17T00:51:00.672Z,100545.41
2023-03-17T00:52:23.309Z,100548.91
2023-03-17T00:53:45.983Z,100542.75
2023-03-17T00:55:10.110Z,100540.13
2023-03-17T00:56:31.897Z,100540.13
2023-03-17T00:57:54.418Z,100543.72
2023-03-17T00:59:24.117Z,100533.13
2023-03-17T01:00:47.402Z,100550.94
2023-03-17T01:02:11.110Z,100548.31
2023-03-17T01:03:34.325Z,100549.16
2023-03-17T01:05:05.556Z,100555.41
2023-03-17T01:06:28.959Z,100543.00
2023-03-17T01:07:54.563Z,100545.66
2023-03-17T01:09:19.267Z,100531.66
2023-03-17T01:10:42.654Z,100533.38
2023-03-17T01:12:04.820Z,100524.47
2023-03-17T01:13:27.504Z,100522.78
2023-03-17T01:14:50.414Z,100519.16
2023-03-17T01:16:13.499Z,100520.13
2023-03-17T01:17:35.087Z,100503.38
2023-03-17T01:18:58.330Z,100488.44
2023-03-17T01:20:23.595Z,100488.44
2023-03-17T01:21:47.952Z,100495.59
2023-03-17T01:23:10.608Z,100498.09
2023-03-17T01:24:33.562Z,100497.25
2023-03-17T01:25:56.238Z,100498.22
2023-03-17T01:27:19.873Z,100491.25
2023-03-17T01:28:41.995Z,100482.59
2023-03-17T01:30:07.706Z,100480.91
2023-03-17T01:31:30.396Z,100479.94
2023-03-17T01:32:52.301Z,100469.56
2023-03-17T01:34:15.718Z,100456.31
2023-03-17T01:35:39.123Z,100454.66
2023-03-17T01:37:00.717Z,100453.56
2023-03-17T01:38:24.519Z,100442.13
2023-03-17T01:39:27.405Z,100445.97
2023-03-17T01:40:32.427Z,100443.34
2023-03-17T01:41:35.209Z,100445.97
2023-03-17T01:42:37.993Z,100450.47
2023-03-17T01:43:39.593Z,100452.25
2023-03-17T01:44:57.864Z,100451.28
2023-03-17T01:46:29.867Z,100447.81
2023-03-17T01:47:31.880Z,100444.31
2023-03-17T01:48:38.709Z,100446.97
2023-03-17T01:49:42.254Z,100449.63
2023-03-17T01:50:46.647Z,100444.31
2023-03-17T01:52:00.773Z,100440.69
2023-03-17T01:53:03.282Z,100444.31
2023-03-17T01:54:09.276Z,100440.69
2023-03-17T01:55:15.906Z,100439.72
2023-03-17T01:57:22.976Z,100444.91
2023-03-17T01:58:27.791Z,100437.78
2023-03-17T01:59:34.758Z,100438.78
2023-03-17T02:00:37.983Z,100444.06
2023-03-17T02:01:47.199Z,100446.72
2023-03-17T02:02:51.646Z,100443.22
2023-03-17T02:03:53.887Z,100442.28
2023-03-17T02:04:57.231Z,100445.72
2023-03-17T02:06:00.445Z,100447.56
2023-03-17T02:07:05.068Z,100448.38
2023-03-17T02:08:11.083Z,100438.63
2023-03-17T02:09:13.778Z,100444.91
2023-03-17T02:10:19.308Z,100440.44
2023-03-17T02:11:22.383Z,100444.78
2023-03-17T02:12:25.812Z,100436.00
2023-03-17T02:13:29.332Z,100441.28
2023-03-17T02:14:31.156Z,100436.84
2023-03-17T02:15:38.811Z,100437.69
2023-03-17T02:16:43.942Z,100436.84
2023-03-17T02:17:46.634Z,100435.13
2023-03-17T02:18:48.173Z,100438.78
2023-03-17T02:19:51.523Z,100434.44
2023-03-17T02:21:29.199Z,100445.97
2023-03-17T02:22:32.679Z,100445.25
2023-03-17T02:23:34.515Z,100446.19
2023-03-17T02:24:40.376Z,100444.53
2023-03-17T02:25:45.290Z,100441.91
2023-03-17T02:26:50.153Z,100441.91
2023-03-17T02:27:57.366Z,100439.34
2023-03-17T02:28:59.149Z,100438.66
2023-03-17T02:30:01.784Z,100444.91
2023-03-17T02:31:04.574Z,100441.53
2023-03-17T02:32:09.835Z,100432.75
2023-03-17T02:33:12.203Z,100440.69
2023-03-17T02:34:15.671Z,100434.66
2023-03-17T02:35:19.377Z,100440.09
2023-03-17T02:36:22.876Z,100439.25
2023-03-17T02:37:25.961Z,100441.06
2023-03-17T02:38:28.584Z,100443.84
2023-03-17T02:39:30.674Z,100443.00
2023-03-17T02:40:33.501Z,100436.00
2023-03-17T02:41:36.225Z,100436.00
2023-03-17T02:42:39.939Z,100437.09
2023-03-17T02:43:42.210Z,100438.06
2023-03-17T02:44:44.935Z,100432.91
2023-03-17T02:45:46.580Z,100426.75
2023-03-17T02:46:49.234Z,100425.91
2023-03-17T02:47:51.608Z,100424.22
2023-03-17T02:48:55.430Z,100422.56
2023-03-17T02:49:57.028Z,100420.88
2023-03-17T02:50:59.900Z,100415.44
2023-03-17T02:52:02.582Z,100411.97
2023-03-17T02:53:05.557Z,100418.22
2023-03-17T02:54:08.462Z,100410.28
2023-03-17T02:55:10.486Z,100419.31
2023-03-17T02:56:13.069Z,100420.97
2023-03-17T02:57:14.721Z,100427.25
2023-03-17T02:58:17.586Z,100430.72
2023-03-17T02:59:19.165Z,100428.22
2023-03-17T03:00:22.579Z,100430.84
2023-03-17T03:01:29.300Z,100426.50
2023-03-17T03:02:31.142Z,100418.56
2023-03-17T03:03:33.747Z,100421.38
2023-03-17T03:04:35.930Z,100434.47
2023-03-17T03:05:38.577Z,100424.00
2023-03-17T03:06:42.367Z,100427.50
2023-03-17T03:07:44.882Z,100426.75
2023-03-17T03:08:47.815Z,100424.13
2023-03-17T03:10:00.483Z,100427.72
2023-03-17T03:11:02.524Z,100425.06
2023-03-17T03:12:05.912Z,100425.22
2023-03-17T03:13:07.848Z,100418.22
2023-03-17T03:14:11.553Z,100416.44
2023-03-17T03:15:13.561Z,100424.38
2023-03-17T03:16:16.729Z,100424.38
2023-03-17T03:17:18.304Z,100422.56
2023-03-17T03:18:20.898Z,100417.28
2023-03-17T03:19:22.616Z,100422.56
2023-03-17T03:20:25.452Z,100418.13
2023-03-17T03:21:27.549Z,100412.94
2023-03-17T03:22:30.090Z,100416.44
2023-03-17T03:23:32.224Z,100413.78
2023-03-17T03:24:36.269Z,100415.47
2023-03-17T03:25:38.614Z,100419.06
2023-03-17T03:26:41.236Z,100413.06
2023-03-17T03:27:42.980Z,100419.31
2023-03-17T03:28:45.724Z,100408.72
2023-03-17T03:29:47.517Z,100408.72
2023-03-17T03:30:50.195Z,100414.88
2023-03-17T03:31:55.197Z,100411.38
2023-03-17T03:33:07.762Z,100408.72
2023-03-17T03:34:17.552Z,100412.34
2023-03-17T03:35:28.333Z,100414.97
2023-03-17T03:36:39.907Z,100414.97
2023-03-17T03:37:43.078Z,100408.97
2023-03-17T03:38:47.074Z,100402.72
2023-03-17T03:39:51.374Z,100406.34
2023-03-17T03:40:54.381Z,100406.44
2023-03-17T03:41:58.114Z,100412.47
2023-03-17T03:43:07.463Z,100420.41
2023-03-17T03:44:14.570Z,100421.50
2023-03-17T03:45:17.483Z,100412.56
2023-03-17T03:46:19.219Z,100417.88
2023-03-17T03:47:22.883Z,100412.56
2023-03-17T03:48:25.914Z,100408.13
2023-03-17T03:49:27.586Z,100410.06
2023-03-17T03:50:32.023Z,100401.28
2023-03-17T03:51:33.766Z,100417.88
2023-03-17T03:52:36.420Z,100415.22
2023-03-17T03:53:37.954Z,100416.22
2023-03-17T03:54:40.842Z,100415.22
2023-03-17T03:55:43.701Z,100425.69
2023-03-17T03:56:46.212Z,100423.91
2023-03-17T03:57:47.845Z,100429.19
2023-03-17T03:58:51.138Z,100426.56
2023-03-17T03:59:52.742Z,100422.91
2023-03-17T04:00:55.302Z,100425.56
2023-03-17T04:01:57.023Z,100424.72
2023-03-17T04:02:59.671Z,100427.38
2023-03-17T04:04:01.744Z,100431.84
2023-03-17T04:05:05.794Z,100433.63
2023-03-17T04:06:07.489Z,100433.63
2023-03-17T04:07:09.995Z,100437.13
2023-03-17T04:08:11.688Z,100437.13
2023-03-17T04:09:14.344Z,100436.38
2023-03-17T04:10:16.246Z,100443.38
2023-03-17T04:11:20.091Z,100446.88
2023-03-17T04:12:21.673Z,100440.72
2023-03-17T04:13:24.368Z,100435.44
2023-03-17T04:14:25.904Z,100437.13
2023-03-17T04:15:28.406Z,100431.00
2023-03-17T04:16:30.192Z,100432.78
2023-03-17T04:17:43.238Z,100432.78
2023-03-17T04:18:44.806Z,100439.03
2023-03-17T04:19:47.301Z,100436.38
2023-03-17T04:20:48.911Z,100435.53
2023-03-17T04:21:53.722Z,100442.66
2023-03-17T04:22:56.293Z,100442.66
2023-03-17T04:23:58.918Z,100434.72
2023-03-17T04:25:00.777Z,100435.69
2023-03-17T04:26:13.463Z,100427.75
2023-03-17T04:27:17.402Z,100427.75
2023-03-17T04:28:20.470Z,100421.50
2023-03-17T04:29:32.181Z,100426.78
2023-03-17T04:30:34.704Z,100425.94
2023-03-17T04:31:37.436Z,100422.44
2023-03-17T04:32:40.437Z,100422.44
2023-03-17T04:33:42.294Z,100418.97
2023-03-17T04:34:44.938Z,100424.16
2023-03-17T04:35:46.525Z,100423.16
2023-03-17T04:36:49.086Z,100421.50
2023-03-17T04:37:51.889Z,100434.59
2023-03-17T04:38:53.572Z,100430.16
2023-03-17T04:39:56.327Z,100429.19
2023-03-17T04:40:57.924Z,100427.38
2023-03-17T04:42:00.726Z,100426.56
2023-03-17T04:43:06.450Z,100427.38
2023-03-17T04:44:08.523Z,100431.84
2023-03-17T04:45:13.959Z,100424.84
2023-03-17T04:46:16.155Z,100419.56
2023-03-17T04:47:18.706Z,100425.69
2023-03-17T04:48:20.323Z,100429.28
2023-03-17T04:49:22.883Z,100424.00
2023-03-17T04:50:24.419Z,100423.16
2023-03-17T04:51:27.192Z,100432.91
2023-03-17T04:52:28.812Z,100424.97
2023-03-17T04:53:31.523Z,100424.97
2023-03-17T04:54:33.125Z,100416.22
2023-03-17T04:55:35.959Z,100416.22
2023-03-17T04:56:38.526Z,100410.91
2023-03-17T04:57:40.506Z,100417.88
2023-03-17T04:58:44.534Z,100418.72
2023-03-17T04:59:46.245Z,100416.91
2023-03-17T05:00:48.895Z,100414.28
2023-03-17T05:01:51.227Z,100422.06
2023-03-17T05:02:53.772Z,100417.63
2023-03-17T05:03:55.972Z,100428.22
2023-03-17T05:04:58.574Z,100421.25
2023-03-17T05:06:00.890Z,100421.13
2023-03-17T05:07:03.672Z,100416.91
2023-03-17T05:08:05.689Z,100420.41
2023-03-17T05:09:08.518Z,100421.25
2023-03-17T05:10:12.275Z,100417.88
2023-03-17T05:11:15.665Z,100416.91
2023-03-17T05:12:17.412Z,100423.91
2023-03-17T05:13:19.924Z,100428.44
2023-03-17T05:14:23.065Z,100431.09
2023-03-17T05:15:26.724Z,100426.78
2023-03-17T05:16:28.383Z,100421.50
2023-03-17T05:17:30.975Z,100423.31
2023-03-17T05:18:33.445Z,100426.78
2023-03-17T05:19:36.377Z,100425.09
2023-03-17T05:20:38.040Z,100428.69
2023-03-17T05:21:40.666Z,100435.69
2023-03-17T05:22:42.202Z,100431.47
2023-03-17T05:23:45.183Z,100430.63
2023-03-17T05:24:47.482Z,100429.78
2023-03-17T05:25:50.905Z,100432.53
2023-03-17T05:26:52.538Z,100423.78
2023-03-17T05:27:55.312Z,100430.88
2023-03-17T05:28:56.860Z,100429.19
2023-03-17T05:30:00.797Z,100436.16
2023-03-17T05:31:03.348Z,100439.78
2023-03-17T05:32:06.773Z,100439.78
2023-03-17T05:33:08.539Z,100445.06
2023-03-17T05:34:11.177Z,100446.84
2023-03-17T05:35:12.975Z,100448.66
2023-03-17T05:36:15.536Z,100445.06
2023-03-17T05:37:17.361Z,100441.69
2023-03-17T05:38:30.454Z,100437.22
2023-03-17T05:39:32.752Z,100439.06
2023-03-17T05:40:35.482Z,100440.84
2023-03-17T05:41:37.116Z,100436.41
2023-03-17T05:42:39.872Z,100439.06
2023-03-17T05:43:41.766Z,100431.13
2023-03-17T05:44:44.502Z,100433.78
2023-03-17T05:45:49.941Z,100433.78
2023-03-17T05:47:02.835Z,100431.13
2023-03-17T05:48:05.025Z,100427.63
2023-03-17T05:49:07.538Z,100426.78
2023-03-17T05:50:19.217Z,100431.13
2023-03-17T05:51:22.653Z,100419.81
2023-03-17T05:52:24.322Z,100424.13
2023-03-17T05:53:27.070Z,100422.34
2023-03-17T05:54:28.823Z,100421.50
2023-03-17T05:55:31.341Z,100418.84
2023-03-17T05:56:34.161Z,100422.34
2023-03-17T05:57:43.768Z,100430.13
2023-03-17T05:58:46.589Z,100424.00
2023-03-17T05:59:48.699Z,100425.59
2023-03-17T06:00:52.600Z,100423.06
2023-03-17T06:01:54.226Z,100421.16
2023-03-17T06:02:56.691Z,100420.28
2023-03-17T06:04:08.432Z,100422.81
2023-03-17T06:05:11.684Z,100416.66
2023-03-17T06:06:13.339Z,100418.34
2023-03-17T06:07:17.344Z,100413.06
2023-03-17T06:08:18.975Z,100410.41
2023-03-17T06:09:21.501Z,100416.56
2023-03-17T06:10:26.180Z,100420.91
2023-03-17T06:11:28.895Z,100420.75
2023-03-17T06:12:40.566Z,100419.81
2023-03-17T06:13:43.258Z,100420.66
2023-03-17T06:14:44.895Z,100416.22
2023-03-17T06:15:52.100Z,100422.22
2023-03-17T06:16:55.020Z,100422.06
2023-03-17T06:17:57.568Z,100418.47
2023-03-17T06:18:59.200Z,100413.06
2023-03-17T06:20:01.805Z,100422.66
2023-03-17T06:21:08.567Z,100419.06
2023-03-17T06:22:11.373Z,100410.19
2023-03-17T06:23:19.752Z,100417.97
2023-03-17T06:24:21.557Z,100415.22
2023-03-17T06:25:35.349Z,100418.56
2023-03-17T06:26:37.219Z,100425.56
2023-03-17T06:27:39.821Z,100416.66
2023-03-17T06:28:42.411Z,100414.63
2023-03-17T06:29:44.115Z,100414.47
2023-03-17T06:30:48.837Z,100420.47
2023-03-17T06:31:51.271Z,100409.78
2023-03-17T06:32:55.313Z,100410.38
2023-03-17T06:33:58.293Z,100413.75
2023-03-17T06:34:59.953Z,100410.97
2023-03-17T06:36:03.192Z,100403.75
2023-03-17T06:37:05.091Z,100407.94
2023-03-17T06:38:08.106Z,100399.78
2023-03-17T06:39:10.858Z,100400.47
2023-03-17T06:40:14.858Z,100400.16
2023-03-17T06:41:16.691Z,100400.72
2023-03-17T06:42:19.256Z,100410.09
2023-03-17T06:43:22.076Z,100412.63
2023-03-17T06:44:24.803Z,100410.59
2023-03-17T06:45:36.964Z,100410.34
2023-03-17T06:46:39.647Z,100409.34
2023-03-17T06:47:41.436Z,100405.47
2023-03-17T06:48:47.640Z,100404.38
2023-03-17T06:49:49.261Z,100407.63
2023-03-17T06:50:51.815Z,100410.00
2023-03-17T06:51:53.929Z,100404.47
2023-03-17T06:52:56.540Z,100414.00
2023-03-17T06:53:58.420Z,100415.41
2023-03-17T06:55:01.024Z,100417.81
2023-03-17T06:56:04.984Z,100419.38
2023-03-17T06:57:07.835Z,100421.88
2023-03-17T06:58:13.045Z,100431.41
2023-03-17T06:59:14.757Z,100425.84
2023-03-17T07:00:18.096Z,100423.91
2023-03-17T07:01:22.100Z,100428.09
2023-03-17T07:02:24.858Z,100425.34
2023-03-17T07:03:27.311Z,100421.47
2023-03-17T07:04:31.834Z,100421.19
2023-03-17T07:05:34.477Z,100428.91
2023-03-17T07:06:36.200Z,100431.28
2023-03-17T07:07:38.745Z,100426.56
2023-03-17T07:08:41.398Z,100417.63
2023-03-17T07:09:45.102Z,100422.66
2023-03-17T07:10:46.949Z,100425.22
2023-03-17T07:11:49.784Z,100423.00
2023-03-17T07:12:52.477Z,100429.03
2023-03-17T07:13:54.123Z,100435.03
2023-03-17T07:14:56.824Z,100427.81
2023-03-17T07:16:00.514Z,100433.81
2023-03-17T07:17:03.491Z,100429.19
2023-03-17T07:18:06.333Z,100418.47
2023-03-17T07:19:09.852Z,100424.47
2023-03-17T07:20:13.896Z,100425.22
2023-03-17T07:21:16.652Z,100428.72
2023-03-17T07:22:19.203Z,100425.91
2023-03-17T07:23:22.832Z,100437.38
2023-03-17T07:24:26.519Z,100433.75
2023-03-17T07:25:28.400Z,100433.75
2023-03-17T07:26:31.402Z,100428.19
2023-03-17T07:27:33.148Z,100428.88
2023-03-17T07:28:35.701Z,100424.25
2023-03-17T07:29:39.002Z,100429.47
2023-03-17T07:30:46.819Z,100422.19
2023-03-17T07:31:50.429Z,100427.38
2023-03-17T07:32:53.781Z,100417.47
2023-03-17T07:34:06.552Z,100421.66
2023-03-17T07:35:09.382Z,100417.94
2023-03-17T07:36:15.461Z,100415.13
2023-03-17T07:37:19.322Z,100420.16
2023-03-17T07:38:21.871Z,100419.09
2023-03-17T07:39:24.862Z,100415.44
2023-03-17T07:40:26.710Z,100423.00
2023-03-17T07:41:29.948Z,100416.59
2023-03-17T07:42:31.469Z,100415.63
2023-03-17T07:43:34.043Z,100418.84
2023-03-17T07:44:37.475Z,100412.44
2023-03-17T07:45:40.304Z,100413.97
2023-03-17T07:46:42.844Z,100412.84
2023-03-17T07:47:46.273Z,100409.94
2023-03-17T07:48:48.900Z,100411.63
2023-03-17T07:49:50.568Z,100409.72
2023-03-17T07:50:53.586Z,100408.59
2023-03-17T07:51:56.457Z,100405.81
2023-03-17T07:52:59.002Z,100398.56
2023-03-17T07:54:03.788Z,100405.53
2023-03-17T07:55:10.516Z,100409.75
2023-03-17T07:56:13.809Z,100397.28
2023-03-17T07:57:16.554Z,100406.94
2023-03-17T07:58:20.131Z,100411.28
2023-03-17T07:59:21.966Z,100407.66
2023-03-17T08:00:27.020Z,100410.31
2023-03-17T08:01:34.746Z,100405.72
2023-03-17T08:02:36.703Z,100407.41
2023-03-17T08:03:41.283Z,100417.03
2023-03-17T08:04:43.336Z,100419.56
2023-03-17T08:05:47.024Z,100407.13
2023-03-17T08:06:49.679Z,100407.81
2023-03-17T08:07:53.541Z,100406.84
2023-03-17T08:08:56.465Z,100406.69
2023-03-17T08:09:58.840Z,100405.72
2023-03-17T08:11:03.427Z,100408.13
2023-03-17T08:12:08.302Z,100408.97
2023-03-17T08:13:10.833Z,100406.31
2023-03-17T08:14:13.051Z,100407.00
2023-03-17T08:15:15.695Z,100410.38
2023-03-17T08:16:17.388Z,100412.03
2023-03-17T08:17:20.058Z,100420.56
2023-03-17T08:18:22.927Z,100421.28
2023-03-17T08:19:25.561Z,100422.94
2023-03-17T08:20:27.199Z,100429.66
2023-03-17T08:21:30.029Z,100435.81
2023-03-17T08:22:32.647Z,100429.41
2023-03-17T08:23:36.835Z,100431.94
2023-03-17T08:24:42.767Z,100424.81
2023-03-17T08:25:44.782Z,100425.50
2023-03-17T08:26:49.155Z,100424.53
2023-03-17T08:27:50.998Z,100431.38
2023-03-17T08:28:53.721Z,100431.09
2023-03-17T08:29:56.768Z,100427.19
2023-03-17T08:31:10.386Z,100428.84
2023-03-17T08:32:15.357Z,100424.38
2023-03-17T08:33:17.370Z,100424.25
2023-03-17T08:34:20.008Z,100428.56
2023-03-17T08:35:23.847Z,100426.75
2023-03-17T08:36:25.991Z,100422.28
2023-03-17T08:37:28.532Z,100434.63
2023-03-17T08:38:30.225Z,100437.13
2023-03-17T08:39:35.086Z,100433.66
2023-03-17T08:40:38.247Z,100427.47
2023-03-17T08:41:39.872Z,100436.31
2023-03-17T08:42:42.381Z,100437.13
2023-03-17T08:43:44.841Z,100428.31
2023-03-17T08:44:47.311Z,100431.69
2023-03-17T08:45:49.599Z,100436.72
2023-03-17T08:46:53.441Z,100431.13
2023-03-17T08:47:55.824Z,100429.16
2023-03-17T08:48:59.539Z,100418.25
2023-03-17T08:50:01.196Z,100421.31
2023-03-17T08:51:05.400Z,100416.56
2023-03-17T08:52:07.996Z,100413.63
2023-03-17T08:53:10.539Z,100410.69
2023-03-17T08:54:23.049Z,100416.00
2023-03-17T08:55:27.008Z,100415.72
2023-03-17T08:56:28.903Z,100407.63
2023-03-17T08:57:31.981Z,100409.00
2023-03-17T08:58:34.982Z,100401.72
2023-03-17T08:59:37.623Z,100405.78
2023-03-17T09:00:40.750Z,100403.13
2023-03-17T09:01:45.563Z,100411.94
2023-03-17T09:02:48.348Z,100411.13
2023-03-17T09:03:51.850Z,100410.97
2023-03-17T09:04:54.115Z,100416.28
2023-03-17T09:05:56.814Z,100414.34
2023-03-17T09:07:03.611Z,100409.81
2023-03-17T09:08:06.012Z,100406.19
2023-03-17T09:09:08.539Z,100409.53
2023-03-17T09:10:13.573Z,100411.09
2023-03-17T09:11:20.994Z,100410.94
2023-03-17T09:12:22.774Z,100409.97
2023-03-17T09:13:25.518Z,100417.66
2023-03-17T09:14:27.459Z,100415.69
2023-03-17T09:15:31.080Z,100414.59
2023-03-17T09:16:34.283Z,100416.13
2023-03-17T09:17:35.924Z,100415.81
2023-03-17T09:18:38.818Z,100405.78
2023-03-17T09:19:41.466Z,100410.63
2023-03-17T09:20:43.192Z,100417.34
2023-03-17T09:21:46.151Z,100415.13
2023-03-17T09:22:49.095Z,100411.47
2023-03-17T09:23:51.887Z,100408.38
2023-03-17T09:24:53.684Z,100421.25
2023-03-17T09:25:57.074Z,100419.00
2023-03-17T09:27:01.334Z,100416.72
2023-03-17T09:28:03.692Z,100418.81
2023-03-17T09:29:07.134Z,100418.38
2023-03-17T09:30:10.773Z,100409.78
2023-03-17T09:31:13.584Z,100415.66
2023-03-17T09:32:16.026Z,100402.06
2023-03-17T09:33:18.660Z,100407.06
2023-03-17T09:34:21.170Z,100404.28
2023-03-17T09:35:23.751Z,100399.81
2023-03-17T09:36:26.650Z,100395.16
2023-03-17T09:37:28.248Z,100396.16
2023-03-17T09:38:31.609Z,100396.16
2023-03-17T09:39:34.358Z,100399.63
2023-03-17T09:40:44.647Z,100396.84
2023-03-17T09:41:58.457Z,100393.19
2023-03-17T09:43:12.241Z,100395.56
2023-03-17T09:44:29.296Z,100404.22
2023-03-17T09:45:35.733Z,100392.59
2023-03-17T09:46:48.387Z,100393.28
2023-03-17T09:48:03.016Z,100387.94
2023-03-17T09:49:08.768Z,100392.44
2023-03-17T09:50:15.901Z,100399.59
2023-03-17T09:51:20.011Z,100409.25
2023-03-17T09:52:27.132Z,100408.41
2023-03-17T09:53:34.506Z,100411.63
2023-03-17T09:54:38.003Z,100398.31
2023-03-17T09:55:41.596Z,100404.19
2023-03-17T09:56:49.377Z,100404.03
2023-03-17T09:57:53.660Z,100401.06
2023-03-17T09:59:01.020Z,100406.09
2023-03-17T10:00:07.203Z,100403.13
2023-03-17T10:01:12.714Z,100405.50
2023-03-17T10:02:21.849Z,100405.19
2023-03-17T10:03:25.615Z,100412.06
2023-03-17T10:04:28.867Z,100412.75
2023-03-17T10:05:32.259Z,100409.94
2023-03-17T10:06:38.880Z,100410.47
2023-03-17T10:07:47.089Z,100407.50
2023-03-17T10:08:56.416Z,100408.22
2023-03-17T10:10:17.504Z,100407.06
2023-03-17T10:11:32.938Z,100403.38
2023-03-17T10:12:47.102Z,100400.72
2023-03-17T10:13:54.931Z,100402.41
2023-03-17T10:15:03.759Z,100399.44
2023-03-17T10:16:08.285Z,100399.28
2023-03-17T10:17:18.122Z,100398.31
2023-03-17T10:18:27.090Z,100400.00
2023-03-17T10:19:33.460Z,100397.34
2023-03-17T10:20:39.285Z,100404.19
2023-03-17T10:21:51.767Z,100405.88
2023-03-17T10:22:58.013Z,100405.56
2023-03-17T10:24:01.838Z,100403.88
2023-03-17T10:25:09.137Z,100400.22
2023-03-17T10:26:25.964Z,100420.72
2023-03-17T10:27:28.726Z,100405.88
2023-03-17T10:28:35.850Z,100410.22
2023-03-17T10:29:38.266Z,100402.22
2023-03-17T10:30:43.412Z,100411.22
2023-03-17T10:31:45.036Z,100414.03
2023-03-17T10:32:48.127Z,100408.72
2023-03-17T10:33:52.418Z,100404.19
2023-03-17T10:34:57.116Z,100403.88
2023-03-17T10:36:09.059Z,100401.91
2023-03-17T10:37:16.274Z,100396.28
2023-03-17T10:38:20.342Z,100388.81
2023-03-17T10:39:25.094Z,100384.16
2023-03-17T10:40:30.469Z,100394.38
2023-03-17T10:41:35.867Z,100383.41
2023-03-17T10:42:48.993Z,100392.06
2023-03-17T10:43:51.774Z,100388.13
2023-03-17T10:44:57.384Z,100393.00
2023-03-17T10:46:03.154Z,100395.19
2023-03-17T10:47:05.120Z,100391.91
2023-03-17T10:48:10.102Z,100396.78
2023-03-17T10:49:17.978Z,100396.47
2023-03-17T10:50:23.560Z,100395.31
2023-03-17T10:51:31.754Z,100392.19
2023-03-17T10:52:40.583Z,100385.69
2023-03-17T10:53:43.744Z,100386.22
2023-03-17T10:54:49.128Z,100380.44
2023-03-17T10:55:52.483Z,100380.78
2023-03-17T10:57:02.088Z,100381.97
2023-03-17T10:58:07.583Z,100374.50
2023-03-17T10:59:17.842Z,100370.84
2023-03-17T11:00:23.145Z,100375.00
2023-03-17T11:01:37.055Z,100360.53
2023-03-17T11:02:46.146Z,100382.56
2023-03-17T11:03:49.652Z,100373.41
2023-03-17T11:04:55.878Z,100366.75
2023-03-17T11:06:03.808Z,100367.09
2023-03-17T11:07:18.835Z,100364.78
2023-03-17T11:08:20.961Z,100365.16
2023-03-17T11:09:23.869Z,100369.06
2023-03-17T11:10:30.179Z,100375.72
2023-03-17T11:11:34.573Z,100363.59
2023-03-17T11:12:40.529Z,100366.78
2023-03-17T11:13:42.111Z,100374.47
2023-03-17T11:14:45.113Z,100360.94
2023-03-17T11:15:52.377Z,100357.94
2023-03-17T11:17:00.108Z,100358.44
2023-03-17T11:18:04.347Z,100362.47
2023-03-17T11:19:12.182Z,100363.84
2023-03-17T11:20:27.519Z,100357.97
2023-03-17T11:21:32.355Z,100362.00
2023-03-17T11:22:40.019Z,100361.69
2023-03-17T11:23:49.646Z,100361.34
2023-03-17T11:25:09.553Z,100359.19
2023-03-17T11:26:28.858Z,100357.88
2023-03-17T11:27:33.789Z,100352.72
2023-03-17T11:28:40.958Z,100356.56
2023-03-17T11:29:54.363Z,100348.03
2023-03-17T11:31:09.352Z,100348.38
2023-03-17T11:32:26.558Z,100359.56
2023-03-17T11:33:41.566Z,100346.72
2023-03-17T11:34:59.595Z,100344.69
2023-03-17T11:36:08.540Z,100341.03
2023-03-17T11:37:21.441Z,100341.53
2023-03-17T11:38:28.210Z,100337.03
2023-03-17T11:39:40.581Z,100337.34
2023-03-17T11:41:00.673Z,100334.50
2023-03-17T11:42:13.230Z,100333.53
2023-03-17T11:43:31.360Z,100329.81
2023-03-17T11:45:11.037Z,100329.81
2023-03-17T11:46:20.054Z,100331.50
2023-03-17T11:47:37.061Z,100326.84
2023-03-17T11:48:52.874Z,100325.50
2023-03-17T11:50:03.333Z,100327.00
2023-03-17T11:51:15.260Z,100325.03
2023-03-17T11:52:26.721Z,100329.19
2023-03-17T11:53:44.835Z,100322.84
2023-03-17T11:54:56.651Z,100321.00
2023-03-17T11:56:04.636Z,100315.13
2023-03-17T11:57:15.170Z,100314.78
2023-03-17T11:58:29.085Z,100314.44
2023-03-17T11:59:36.610Z,100311.63
2023-03-17T12:00:43.913Z,100317.47
2023-03-17T12:01:56.430Z,100313.75
2023-03-17T12:03:08.524Z,100314.44
2023-03-17T12:04:18.798Z,100323.47
2023-03-17T12:05:25.014Z,100318.31
2023-03-17T12:06:32.426Z,100309.59
2023-03-17T12:07:37.443Z,100312.47
2023-03-17T12:08:45.366Z,100306.25
2023-03-17T12:12:06.000Z,100311.13
2023-03-17T12:13:17.870Z,100310.78
2023-03-17T12:14:27.841Z,100322.97
2023-03-17T12:15:37.173Z,100306.75
2023-03-17T12:16:43.250Z,100310.09
2023-03-17T12:17:52.505Z,100313.44
2023-03-17T12:19:03.451Z,100313.09
2023-03-17T12:20:18.045Z,100303.91
2023-03-17T12:21:25.482Z,100308.91
2023-03-17T12:22:32.851Z,100314.56
2023-03-17T12:23:40.172Z,100310.06
2023-03-17T12:24:46.871Z,100309.72
2023-03-17T12:25:58.046Z,100312.38
2023-03-17T12:27:16.762Z,100315.75
2023-03-17T12:28:24.397Z,100311.03
2023-03-17T12:29:43.536Z,100310.03
2023-03-17T12:30:54.305Z,100303.34
2023-03-17T12:32:04.136Z,100312.88
2023-03-17T12:33:20.667Z,100302.81
2023-03-17T12:34:28.658Z,100308.00
2023-03-17T12:35:34.153Z,100301.47
2023-03-17T12:36:36.748Z,100298.59
2023-03-17T12:37:41.110Z,100299.28
2023-03-17T12:38:45.125Z,100291.91
2023-03-17T12:39:55.847Z,100302.25
2023-03-17T12:41:19.427Z,100297.94
2023-03-17T12:42:36.655Z,100296.91
2023-03-17T12:43:56.308Z,100296.75
2023-03-17T12:45:32.302Z,100291.03
2023-03-17T12:46:51.087Z,100293.53